sensor_id;sensor_type;location;lat;lon;timestamp;P1;durP1;ratioP1;P2;durP2;ratioP2
54269;SDS011;40181;51.560;13.000;2024-02-04T00:00:15;3.53;;;1.77;;
54269;SDS011;40181;51.560;13.000;2024-02-04T00:02:45;5.88;;;1.65;;
54269;SDS011;40181;51.560;13.000;2024-02-04T00:05:14;1.92;;;1.40;;
54269;SDS011;40181;51.560;13.000;2024-02-04T00:07:43;1.33;;;1.20;;
54269;SDS011;40181;51.560;13.000;2024-02-04T00:10:15;1.10;;;1.00;;
54269;SDS011;40181;51.560;13.000;2024-02-04T00:12:44;1.92;;;1.52;;
54269;SDS011;40181;51.560;13.000;2024-02-04T00:15:13;2.53;;;1.63;;
54269;SDS011;40181;51.560;13.000;2024-02-04T00:17:42;2.85;;;1.90;;
54269;SDS011;40181;51.560;13.000;2024-02-04T00:20:11;2.70;;;1.50;;
54269;SDS011;40181;51.560;13.000;2024-02-04T00:22:40;1.42;;;1.25;;
54269;SDS011;40181;51.560;13.000;2024-02-04T00:25:12;2.47;;;1.70;;
54269;SDS011;40181;51.560;13.000;2024-02-04T00:27:44;1.40;;;1.10;;
54269;SDS011;40181;51.560;13.000;2024-02-04T00:30:13;0.80;;;0.80;;
54269;SDS011;40181;51.560;13.000;2024-02-04T00:32:42;1.80;;;1.48;;
54269;SDS011;40181;51.560;13.000;2024-02-04T00:35:11;1.30;;;1.13;;
54269;SDS011;40181;51.560;13.000;2024-02-04T00:37:40;2.38;;;1.35;;
54269;SDS011;40181;51.560;13.000;2024-02-04T00:40:12;2.72;;;0.85;;
54269;SDS011;40181;51.560;13.000;2024-02-04T00:42:42;1.67;;;0.90;;
54269;SDS011;40181;51.560;13.000;2024-02-04T00:45:11;0.70;;;0.70;;
54269;SDS011;40181;51.560;13.000;2024-02-04T00:47:41;0.73;;;0.73;;
54269;SDS011;40181;51.560;13.000;2024-02-04T00:50:10;1.80;;;1.23;;
54269;SDS011;40181;51.560;13.000;2024-02-04T00:52:39;0.50;;;0.50;;
54269;SDS011;40181;51.560;13.000;2024-02-04T00:55:08;1.30;;;1.20;;
54269;SDS011;40181;51.560;13.000;2024-02-04T00:57:40;1.02;;;0.90;;
54269;SDS011;40181;51.560;13.000;2024-02-04T01:00:09;2.03;;;1.38;;
54269;SDS011;40181;51.560;13.000;2024-02-04T01:02:40;1.33;;;1.00;;
54269;SDS011;40181;51.560;13.000;2024-02-04T01:05:09;1.63;;;1.13;;
54269;SDS011;40181;51.560;13.000;2024-02-04T01:07:39;3.33;;;1.08;;
54269;SDS011;40181;51.560;13.000;2024-02-04T01:10:08;1.13;;;0.88;;
54269;SDS011;40181;51.560;13.000;2024-02-04T01:12:40;1.08;;;0.75;;
54269;SDS011;40181;51.560;13.000;2024-02-04T01:15:09;1.52;;;1.00;;
54269;SDS011;40181;51.560;13.000;2024-02-04T01:17:38;1.02;;;0.90;;
54269;SDS011;40181;51.560;13.000;2024-02-04T01:20:08;1.73;;;0.90;;
54269;SDS011;40181;51.560;13.000;2024-02-04T01:22:38;0.88;;;0.82;;
54269;SDS011;40181;51.560;13.000;2024-02-04T01:25:07;1.10;;;1.00;;
54269;SDS011;40181;51.560;13.000;2024-02-04T01:27:39;1.30;;;1.08;;
54269;SDS011;40181;51.560;13.000;2024-02-04T01:30:08;3.72;;;1.77;;
54269;SDS011;40181;51.560;13.000;2024-02-04T01:32:38;2.53;;;2.33;;
54269;SDS011;40181;51.560;13.000;2024-02-04T01:35:07;2.15;;;1.58;;
54269;SDS011;40181;51.560;13.000;2024-02-04T01:37:37;2.28;;;1.90;;
54269;SDS011;40181;51.560;13.000;2024-02-04T01:40:06;2.35;;;1.63;;
54269;SDS011;40181;51.560;13.000;2024-02-04T01:42:40;3.47;;;2.25;;
54269;SDS011;40181;51.560;13.000;2024-02-04T01:45:09;3.70;;;2.42;;
54269;SDS011;40181;51.560;13.000;2024-02-04T01:47:38;3.08;;;2.28;;
54269;SDS011;40181;51.560;13.000;2024-02-04T01:50:08;2.08;;;1.70;;
54269;SDS011;40181;51.560;13.000;2024-02-04T01:55:08;1.48;;;1.38;;
54269;SDS011;40181;51.560;13.000;2024-02-04T01:57:40;8.57;;;3.00;;
54269;SDS011;40181;51.560;13.000;2024-02-04T02:00:09;2.60;;;1.77;;
54269;SDS011;40181;51.560;13.000;2024-02-04T02:02:40;2.22;;;1.73;;
54269;SDS011;40181;51.560;13.000;2024-02-04T02:05:09;1.63;;;1.30;;
54269;SDS011;40181;51.560;13.000;2024-02-04T02:07:39;4.43;;;2.00;;
54269;SDS011;40181;51.560;13.000;2024-02-04T02:10:11;2.20;;;1.85;;
54269;SDS011;40181;51.560;13.000;2024-02-04T02:12:43;3.15;;;2.45;;
54269;SDS011;40181;51.560;13.000;2024-02-04T02:15:20;11.07;;;2.50;;
54269;SDS011;40181;51.560;13.000;2024-02-04T02:17:55;2.35;;;1.85;;
54269;SDS011;40181;51.560;13.000;2024-02-04T02:20:31;5.18;;;2.72;;
54269;SDS011;40181;51.560;13.000;2024-02-04T02:23:07;3.35;;;2.75;;
54269;SDS011;40181;51.560;13.000;2024-02-04T02:25:44;3.75;;;2.25;;
54269;SDS011;40181;51.560;13.000;2024-02-04T02:28:15;3.70;;;2.13;;
54269;SDS011;40181;51.560;13.000;2024-02-04T02:30:44;2.38;;;1.88;;
54269;SDS011;40181;51.560;13.000;2024-02-04T02:33:13;1.88;;;1.60;;
54269;SDS011;40181;51.560;13.000;2024-02-04T02:35:42;2.28;;;1.60;;
54269;SDS011;40181;51.560;13.000;2024-02-04T02:38:18;3.80;;;2.08;;
54269;SDS011;40181;51.560;13.000;2024-02-04T02:40:58;3.17;;;2.17;;
54269;SDS011;40181;51.560;13.000;2024-02-04T02:43:32;3.75;;;1.50;;
54269;SDS011;40181;51.560;13.000;2024-02-04T02:46:02;3.63;;;1.52;;
54269;SDS011;40181;51.560;13.000;2024-02-04T02:48:32;2.47;;;2.17;;
54269;SDS011;40181;51.560;13.000;2024-02-04T02:51:01;5.68;;;2.15;;
54269;SDS011;40181;51.560;13.000;2024-02-04T02:53:31;1.65;;;1.33;;
54269;SDS011;40181;51.560;13.000;2024-02-04T02:56:03;2.00;;;1.77;;
54269;SDS011;40181;51.560;13.000;2024-02-04T02:58:33;2.08;;;1.88;;
54269;SDS011;40181;51.560;13.000;2024-02-04T03:01:02;2.80;;;1.85;;
54269;SDS011;40181;51.560;13.000;2024-02-04T03:03:31;4.95;;;3.00;;
54269;SDS011;40181;51.560;13.000;2024-02-04T03:06:00;3.50;;;2.03;;
54269;SDS011;40181;51.560;13.000;2024-02-04T03:08:29;3.08;;;1.77;;
54269;SDS011;40181;51.560;13.000;2024-02-04T03:10:58;2.83;;;1.98;;
54269;SDS011;40181;51.560;13.000;2024-02-04T03:13:30;2.05;;;1.63;;
54269;SDS011;40181;51.560;13.000;2024-02-04T03:15:59;3.85;;;2.05;;
54269;SDS011;40181;51.560;13.000;2024-02-04T03:18:28;1.55;;;1.38;;
54269;SDS011;40181;51.560;13.000;2024-02-04T03:20:57;1.77;;;1.40;;
54269;SDS011;40181;51.560;13.000;2024-02-04T03:23:27;1.42;;;1.23;;
54269;SDS011;40181;51.560;13.000;2024-02-04T03:25:56;2.17;;;1.55;;
54269;SDS011;40181;51.560;13.000;2024-02-04T03:28:25;2.35;;;1.35;;
54269;SDS011;40181;51.560;13.000;2024-02-04T03:30:56;2.58;;;1.85;;
54269;SDS011;40181;51.560;13.000;2024-02-04T03:33:25;1.33;;;1.23;;
54269;SDS011;40181;51.560;13.000;2024-02-04T03:35:54;1.27;;;1.17;;
54269;SDS011;40181;51.560;13.000;2024-02-04T03:38:23;2.47;;;1.95;;
54269;SDS011;40181;51.560;13.000;2024-02-04T03:40:52;2.20;;;1.73;;
54269;SDS011;40181;51.560;13.000;2024-02-04T03:43:21;1.90;;;1.70;;
54269;SDS011;40181;51.560;13.000;2024-02-04T03:45:50;2.13;;;1.88;;
54269;SDS011;40181;51.560;13.000;2024-02-04T03:48:22;2.38;;;2.05;;
54269;SDS011;40181;51.560;13.000;2024-02-04T03:50:51;3.22;;;2.17;;
54269;SDS011;40181;51.560;13.000;2024-02-04T03:53:20;2.60;;;1.92;;
54269;SDS011;40181;51.560;13.000;2024-02-04T03:55:50;3.00;;;2.30;;
54269;SDS011;40181;51.560;13.000;2024-02-04T03:58:19;3.17;;;2.60;;
54269;SDS011;40181;51.560;13.000;2024-02-04T04:00:54;3.30;;;2.55;;
54269;SDS011;40181;51.560;13.000;2024-02-04T04:03:26;3.15;;;2.10;;
54269;SDS011;40181;51.560;13.000;2024-02-04T04:05:55;4.68;;;2.63;;
54269;SDS011;40181;51.560;13.000;2024-02-04T04:08:24;3.03;;;2.22;;
54269;SDS011;40181;51.560;13.000;2024-02-04T04:10:53;5.18;;;3.67;;
54269;SDS011;40181;51.560;13.000;2024-02-04T04:13:22;5.20;;;3.83;;
54269;SDS011;40181;51.560;13.000;2024-02-04T04:15:51;6.05;;;3.95;;
54269;SDS011;40181;51.560;13.000;2024-02-04T04:18:21;6.33;;;4.60;;
54269;SDS011;40181;51.560;13.000;2024-02-04T04:20:52;3.83;;;3.25;;
54269;SDS011;40181;51.560;13.000;2024-02-04T04:23:21;4.75;;;3.28;;
54269;SDS011;40181;51.560;13.000;2024-02-04T04:25:50;3.90;;;3.03;;
54269;SDS011;40181;51.560;13.000;2024-02-04T04:28:19;5.03;;;3.75;;
54269;SDS011;40181;51.560;13.000;2024-02-04T04:30:48;5.25;;;4.47;;
54269;SDS011;40181;51.560;13.000;2024-02-04T04:33:18;4.50;;;3.05;;
54269;SDS011;40181;51.560;13.000;2024-02-04T04:35:48;3.97;;;2.78;;
54269;SDS011;40181;51.560;13.000;2024-02-04T04:38:19;4.13;;;3.20;;
54269;SDS011;40181;51.560;13.000;2024-02-04T04:40:48;4.85;;;3.08;;
54269;SDS011;40181;51.560;13.000;2024-02-04T04:43:17;7.38;;;3.08;;
54269;SDS011;40181;51.560;13.000;2024-02-04T04:45:46;5.65;;;3.63;;
54269;SDS011;40181;51.560;13.000;2024-02-04T04:48:15;5.30;;;3.88;;
54269;SDS011;40181;51.560;13.000;2024-02-04T04:50:45;4.45;;;3.25;;
54269;SDS011;40181;51.560;13.000;2024-02-04T04:53:14;5.80;;;2.60;;
54269;SDS011;40181;51.560;13.000;2024-02-04T04:55:45;5.03;;;2.95;;
54269;SDS011;40181;51.560;13.000;2024-02-04T04:58:14;4.80;;;3.17;;
54269;SDS011;40181;51.560;13.000;2024-02-04T05:00:43;4.38;;;3.30;;
54269;SDS011;40181;51.560;13.000;2024-02-04T05:03:12;5.15;;;3.17;;
54269;SDS011;40181;51.560;13.000;2024-02-04T05:05:41;4.30;;;3.13;;
54269;SDS011;40181;51.560;13.000;2024-02-04T05:08:11;4.32;;;3.10;;
54269;SDS011;40181;51.560;13.000;2024-02-04T05:10:41;4.43;;;3.58;;
54269;SDS011;40181;51.560;13.000;2024-02-04T05:13:13;2.85;;;2.42;;
54269;SDS011;40181;51.560;13.000;2024-02-04T05:15:42;4.78;;;3.55;;
54269;SDS011;40181;51.560;13.000;2024-02-04T05:18:11;4.32;;;3.40;;
54269;SDS011;40181;51.560;13.000;2024-02-04T05:20:40;5.95;;;4.00;;
54269;SDS011;40181;51.560;13.000;2024-02-04T05:23:10;5.28;;;3.75;;
54269;SDS011;40181;51.560;13.000;2024-02-04T05:25:39;4.20;;;3.00;;
54269;SDS011;40181;51.560;13.000;2024-02-04T05:28:08;4.63;;;3.25;;
54269;SDS011;40181;51.560;13.000;2024-02-04T05:30:40;5.68;;;4.72;;
54269;SDS011;40181;51.560;13.000;2024-02-04T05:33:09;5.00;;;3.22;;
54269;SDS011;40181;51.560;13.000;2024-02-04T05:35:42;4.47;;;3.22;;
54269;SDS011;40181;51.560;13.000;2024-02-04T05:38:11;5.53;;;4.25;;
54269;SDS011;40181;51.560;13.000;2024-02-04T05:40:40;4.10;;;3.25;;
54269;SDS011;40181;51.560;13.000;2024-02-04T05:43:09;4.93;;;3.65;;
54269;SDS011;40181;51.560;13.000;2024-02-04T05:45:41;5.90;;;3.42;;
54269;SDS011;40181;51.560;13.000;2024-02-04T05:48:10;4.88;;;3.33;;
54269;SDS011;40181;51.560;13.000;2024-02-04T05:50:39;5.07;;;3.78;;
54269;SDS011;40181;51.560;13.000;2024-02-04T05:53:08;6.60;;;4.65;;
54269;SDS011;40181;51.560;13.000;2024-02-04T05:55:38;6.13;;;4.40;;
54269;SDS011;40181;51.560;13.000;2024-02-04T05:58:07;5.40;;;3.90;;
54269;SDS011;40181;51.560;13.000;2024-02-04T06:00:41;4.72;;;3.33;;
54269;SDS011;40181;51.560;13.000;2024-02-04T06:03:10;4.65;;;3.67;;
54269;SDS011;40181;51.560;13.000;2024-02-04T06:05:40;3.85;;;3.22;;
54269;SDS011;40181;51.560;13.000;2024-02-04T06:08:09;6.28;;;4.35;;
54269;SDS011;40181;51.560;13.000;2024-02-04T06:10:38;5.15;;;3.67;;
54269;SDS011;40181;51.560;13.000;2024-02-04T06:13:07;4.15;;;3.08;;
54269;SDS011;40181;51.560;13.000;2024-02-04T06:15:36;7.32;;;4.55;;
54269;SDS011;40181;51.560;13.000;2024-02-04T06:18:08;3.50;;;2.65;;
54269;SDS011;40181;51.560;13.000;2024-02-04T06:20:37;3.95;;;3.10;;
54269;SDS011;40181;51.560;13.000;2024-02-04T06:23:06;3.70;;;3.17;;
54269;SDS011;40181;51.560;13.000;2024-02-04T06:25:35;3.63;;;2.83;;
54269;SDS011;40181;51.560;13.000;2024-02-04T06:28:04;3.60;;;3.05;;
54269;SDS011;40181;51.560;13.000;2024-02-04T06:30:33;3.85;;;3.30;;
54269;SDS011;40181;51.560;13.000;2024-02-04T06:33:02;4.82;;;3.60;;
54269;SDS011;40181;51.560;13.000;2024-02-04T06:35:34;3.40;;;2.40;;
54269;SDS011;40181;51.560;13.000;2024-02-04T06:38:03;3.55;;;2.53;;
54269;SDS011;40181;51.560;13.000;2024-02-04T06:40:33;5.50;;;2.63;;
54269;SDS011;40181;51.560;13.000;2024-02-04T06:43:03;3.78;;;2.78;;
54269;SDS011;40181;51.560;13.000;2024-02-04T06:45:32;6.32;;;4.10;;
54269;SDS011;40181;51.560;13.000;2024-02-04T06:48:01;3.72;;;2.90;;
54269;SDS011;40181;51.560;13.000;2024-02-04T06:50:30;5.28;;;3.10;;
54269;SDS011;40181;51.560;13.000;2024-02-04T06:53:02;5.07;;;3.25;;
54269;SDS011;40181;51.560;13.000;2024-02-04T06:55:31;3.97;;;3.25;;
54269;SDS011;40181;51.560;13.000;2024-02-04T06:58:01;3.85;;;2.80;;
54269;SDS011;40181;51.560;13.000;2024-02-04T07:00:30;4.18;;;3.05;;
54269;SDS011;40181;51.560;13.000;2024-02-04T07:02:59;2.75;;;2.15;;
54269;SDS011;40181;51.560;13.000;2024-02-04T07:05:28;3.60;;;2.58;;
54269;SDS011;40181;51.560;13.000;2024-02-04T07:08:01;2.50;;;2.08;;
54269;SDS011;40181;51.560;13.000;2024-02-04T07:10:30;3.92;;;2.97;;
54269;SDS011;40181;51.560;13.000;2024-02-04T07:12:59;4.55;;;4.05;;
54269;SDS011;40181;51.560;13.000;2024-02-04T07:15:28;4.72;;;3.20;;
54269;SDS011;40181;51.560;13.000;2024-02-04T07:17:57;6.22;;;4.53;;
54269;SDS011;40181;51.560;13.000;2024-02-04T07:20:26;4.10;;;3.28;;
54269;SDS011;40181;51.560;13.000;2024-02-04T07:22:55;4.63;;;3.53;;
54269;SDS011;40181;51.560;13.000;2024-02-04T07:25:27;6.95;;;3.25;;
54269;SDS011;40181;51.560;13.000;2024-02-04T07:27:56;2.03;;;1.83;;
54269;SDS011;40181;51.560;13.000;2024-02-04T07:30:26;2.58;;;1.75;;
54269;SDS011;40181;51.560;13.000;2024-02-04T07:32:55;4.38;;;2.58;;
54269;SDS011;40181;51.560;13.000;2024-02-04T07:35:24;3.92;;;2.33;;
54269;SDS011;40181;51.560;13.000;2024-02-04T07:37:53;2.80;;;2.03;;
54269;SDS011;40181;51.560;13.000;2024-02-04T07:40:21;1.50;;;1.40;;
54269;SDS011;40181;51.560;13.000;2024-02-04T07:42:54;2.88;;;1.90;;
54269;SDS011;40181;51.560;13.000;2024-02-04T07:45:23;2.00;;;1.58;;
54269;SDS011;40181;51.560;13.000;2024-02-04T07:47:52;2.05;;;1.67;;
54269;SDS011;40181;51.560;13.000;2024-02-04T07:50:21;2.47;;;1.45;;
54269;SDS011;40181;51.560;13.000;2024-02-04T07:52:51;1.70;;;1.25;;
54269;SDS011;40181;51.560;13.000;2024-02-04T07:55:20;1.25;;;1.15;;
54269;SDS011;40181;51.560;13.000;2024-02-04T07:57:49;3.08;;;1.80;;
54269;SDS011;40181;51.560;13.000;2024-02-04T08:00:21;3.00;;;1.20;;
54269;SDS011;40181;51.560;13.000;2024-02-04T08:02:50;2.05;;;1.38;;
54269;SDS011;40181;51.560;13.000;2024-02-04T08:05:19;1.50;;;1.30;;
54269;SDS011;40181;51.560;13.000;2024-02-04T08:07:45;1.85;;;1.38;;
54269;SDS011;40181;51.560;13.000;2024-02-04T08:10:14;3.13;;;1.60;;
54269;SDS011;40181;51.560;13.000;2024-02-04T08:12:43;2.63;;;1.48;;
54269;SDS011;40181;51.560;13.000;2024-02-04T08:15:15;2.58;;;1.45;;
54269;SDS011;40181;51.560;13.000;2024-02-04T08:17:47;3.78;;;2.25;;
54269;SDS011;40181;51.560;13.000;2024-02-04T08:20:17;2.75;;;1.85;;
54269;SDS011;40181;51.560;13.000;2024-02-04T08:22:46;2.67;;;1.60;;
54269;SDS011;40181;51.560;13.000;2024-02-04T08:25:15;1.83;;;1.33;;
54269;SDS011;40181;51.560;13.000;2024-02-04T08:27:45;3.08;;;1.75;;
54269;SDS011;40181;51.560;13.000;2024-02-04T08:30:14;1.70;;;1.50;;
54269;SDS011;40181;51.560;13.000;2024-02-04T08:32:44;1.00;;;0.93;;
54269;SDS011;40181;51.560;13.000;2024-02-04T08:35:15;1.27;;;1.13;;
54269;SDS011;40181;51.560;13.000;2024-02-04T08:37:44;1.88;;;1.50;;
54269;SDS011;40181;51.560;13.000;2024-02-04T08:40:13;2.13;;;1.75;;
54269;SDS011;40181;51.560;13.000;2024-02-04T08:42:43;2.10;;;1.65;;
54269;SDS011;40181;51.560;13.000;2024-02-04T08:45:12;3.22;;;1.67;;
54269;SDS011;40181;51.560;13.000;2024-02-04T08:47:41;2.67;;;1.42;;
54269;SDS011;40181;51.560;13.000;2024-02-04T08:50:13;2.13;;;1.75;;
54269;SDS011;40181;51.560;13.000;2024-02-04T08:52:42;2.42;;;1.42;;
54269;SDS011;40181;51.560;13.000;2024-02-04T08:55:11;2.33;;;1.70;;
54269;SDS011;40181;51.560;13.000;2024-02-04T08:57:40;4.35;;;1.42;;
54269;SDS011;40181;51.560;13.000;2024-02-04T09:00:10;1.23;;;1.13;;
54269;SDS011;40181;51.560;13.000;2024-02-04T09:02:40;7.10;;;1.42;;
54269;SDS011;40181;51.560;13.000;2024-02-04T09:07:43;1.63;;;1.08;;
54269;SDS011;40181;51.560;13.000;2024-02-04T09:10:13;2.22;;;1.35;;
54269;SDS011;40181;51.560;13.000;2024-02-04T09:12:42;1.45;;;1.33;;
54269;SDS011;40181;51.560;13.000;2024-02-04T09:15:11;3.60;;;2.15;;
54269;SDS011;40181;51.560;13.000;2024-02-04T09:17:40;3.28;;;2.17;;
54269;SDS011;40181;51.560;13.000;2024-02-04T09:20:10;4.10;;;2.60;;
54269;SDS011;40181;51.560;13.000;2024-02-04T09:22:43;2.00;;;1.52;;
54269;SDS011;40181;51.560;13.000;2024-02-04T09:25:12;2.55;;;1.80;;
54269;SDS011;40181;51.560;13.000;2024-02-04T09:27:41;1.45;;;1.35;;
54269;SDS011;40181;51.560;13.000;2024-02-04T09:30:10;2.10;;;1.67;;
54269;SDS011;40181;51.560;13.000;2024-02-04T09:32:40;1.70;;;1.55;;
54269;SDS011;40181;51.560;13.000;2024-02-04T09:35:09;5.40;;;1.85;;
54269;SDS011;40181;51.560;13.000;2024-02-04T09:37:41;2.20;;;1.77;;
54269;SDS011;40181;51.560;13.000;2024-02-04T09:40:11;3.17;;;1.73;;
54269;SDS011;40181;51.560;13.000;2024-02-04T09:42:42;2.70;;;1.85;;
54269;SDS011;40181;51.560;13.000;2024-02-04T09:45:11;2.17;;;1.00;;
54269;SDS011;40181;51.560;13.000;2024-02-04T09:47:44;2.35;;;1.67;;
54269;SDS011;40181;51.560;13.000;2024-02-04T09:50:14;1.25;;;1.10;;
54269;SDS011;40181;51.560;13.000;2024-02-04T09:52:47;1.38;;;1.20;;
54269;SDS011;40181;51.560;13.000;2024-02-04T09:55:19;1.20;;;1.08;;
54269;SDS011;40181;51.560;13.000;2024-02-04T09:57:49;2.08;;;1.25;;
54269;SDS011;40181;51.560;13.000;2024-02-04T10:00:18;0.73;;;0.70;;
54269;SDS011;40181;51.560;13.000;2024-02-04T10:02:48;1.88;;;0.98;;
54269;SDS011;40181;51.560;13.000;2024-02-04T10:05:17;1.80;;;0.98;;
54269;SDS011;40181;51.560;13.000;2024-02-04T10:07:49;1.65;;;1.30;;
54269;SDS011;40181;51.560;13.000;2024-02-04T10:10:18;0.75;;;0.75;;
54269;SDS011;40181;51.560;13.000;2024-02-04T10:12:47;1.95;;;1.20;;
54269;SDS011;40181;51.560;13.000;2024-02-04T10:15:16;1.20;;;0.88;;
54269;SDS011;40181;51.560;13.000;2024-02-04T10:17:46;1.40;;;1.23;;
54269;SDS011;40181;51.560;13.000;2024-02-04T10:20:15;1.00;;;0.90;;
54269;SDS011;40181;51.560;13.000;2024-02-04T10:22:44;1.05;;;0.95;;
54269;SDS011;40181;51.560;13.000;2024-02-04T10:25:19;1.52;;;1.20;;
54269;SDS011;40181;51.560;13.000;2024-02-04T10:27:49;1.83;;;1.08;;
54269;SDS011;40181;51.560;13.000;2024-02-04T10:30:18;4.55;;;1.42;;
54269;SDS011;40181;51.560;13.000;2024-02-04T10:32:50;1.57;;;1.07;;
54269;SDS011;40181;51.560;13.000;2024-02-04T10:35:20;2.33;;;1.60;;
54269;SDS011;40181;51.560;13.000;2024-02-04T10:37:49;2.42;;;1.65;;
54269;SDS011;40181;51.560;13.000;2024-02-04T10:40:21;5.47;;;1.15;;
54269;SDS011;40181;51.560;13.000;2024-02-04T10:42:50;1.17;;;1.05;;
54269;SDS011;40181;51.560;13.000;2024-02-04T10:45:24;3.88;;;1.48;;
54269;SDS011;40181;51.560;13.000;2024-02-04T10:47:57;1.50;;;1.10;;
54269;SDS011;40181;51.560;13.000;2024-02-04T10:50:30;2.85;;;1.70;;
54269;SDS011;40181;51.560;13.000;2024-02-04T10:53:04;2.25;;;1.13;;
54269;SDS011;40181;51.560;13.000;2024-02-04T10:55:38;2.08;;;1.30;;
54269;SDS011;40181;51.560;13.000;2024-02-04T10:58:10;1.75;;;0.93;;
54269;SDS011;40181;51.560;13.000;2024-02-04T11:00:41;1.80;;;1.58;;
54269;SDS011;40181;51.560;13.000;2024-02-04T11:03:11;1.27;;;1.10;;
54269;SDS011;40181;51.560;13.000;2024-02-04T11:05:41;1.77;;;1.13;;
54269;SDS011;40181;51.560;13.000;2024-02-04T11:08:11;3.83;;;1.20;;
54269;SDS011;40181;51.560;13.000;2024-02-04T11:10:43;2.50;;;1.90;;
54269;SDS011;40181;51.560;13.000;2024-02-04T11:13:12;2.15;;;1.20;;
54269;SDS011;40181;51.560;13.000;2024-02-04T11:18:17;1.67;;;1.27;;
54269;SDS011;40181;51.560;13.000;2024-02-04T11:21:23;2.03;;;1.38;;
54269;SDS011;40181;51.560;13.000;2024-02-04T11:24:28;1.45;;;1.15;;
54269;SDS011;40181;51.560;13.000;2024-02-04T11:27:22;3.83;;;1.35;;
54269;SDS011;40181;51.560;13.000;2024-02-04T11:29:56;2.40;;;1.55;;
54269;SDS011;40181;51.560;13.000;2024-02-04T11:32:25;1.95;;;1.60;;
54269;SDS011;40181;51.560;13.000;2024-02-04T11:34:54;1.70;;;1.00;;
54269;SDS011;40181;51.560;13.000;2024-02-04T11:37:26;2.33;;;0.98;;
54269;SDS011;40181;51.560;13.000;2024-02-04T11:39:57;2.10;;;1.00;;
54269;SDS011;40181;51.560;13.000;2024-02-04T11:42:33;1.17;;;1.08;;
54269;SDS011;40181;51.560;13.000;2024-02-04T11:45:09;5.47;;;1.30;;
54269;SDS011;40181;51.560;13.000;2024-02-04T11:47:40;1.40;;;1.17;;
54269;SDS011;40181;51.560;13.000;2024-02-04T11:50:09;1.48;;;1.20;;
54269;SDS011;40181;51.560;13.000;2024-02-04T11:52:39;2.38;;;1.45;;
54269;SDS011;40181;51.560;13.000;2024-02-04T11:55:12;1.73;;;1.35;;
54269;SDS011;40181;51.560;13.000;2024-02-04T11:57:44;1.48;;;1.08;;
54269;SDS011;40181;51.560;13.000;2024-02-04T12:00:15;2.15;;;1.02;;
54269;SDS011;40181;51.560;13.000;2024-02-04T12:02:45;1.88;;;1.00;;
54269;SDS011;40181;51.560;13.000;2024-02-04T12:05:14;4.65;;;1.30;;
54269;SDS011;40181;51.560;13.000;2024-02-04T12:07:43;2.30;;;1.42;;
54269;SDS011;40181;51.560;13.000;2024-02-04T12:10:12;4.93;;;1.10;;
54269;SDS011;40181;51.560;13.000;2024-02-04T12:12:41;4.18;;;1.40;;
54269;SDS011;40181;51.560;13.000;2024-02-04T12:15:14;2.67;;;1.52;;
54269;SDS011;40181;51.560;13.000;2024-02-04T12:17:43;1.70;;;0.90;;
54269;SDS011;40181;51.560;13.000;2024-02-04T12:20:12;1.05;;;0.82;;
54269;SDS011;40181;51.560;13.000;2024-02-04T12:22:41;3.00;;;1.55;;
54269;SDS011;40181;51.560;13.000;2024-02-04T12:25:11;1.70;;;1.10;;
54269;SDS011;40181;51.560;13.000;2024-02-04T12:27:40;2.78;;;1.55;;
54269;SDS011;40181;51.560;13.000;2024-02-04T12:30:15;1.30;;;0.73;;
54269;SDS011;40181;51.560;13.000;2024-02-04T12:32:49;1.92;;;1.33;;
54269;SDS011;40181;51.560;13.000;2024-02-04T12:35:25;1.17;;;1.08;;
54269;SDS011;40181;51.560;13.000;2024-02-04T12:37:54;2.20;;;1.30;;
54269;SDS011;40181;51.560;13.000;2024-02-04T12:40:25;2.47;;;1.48;;
54269;SDS011;40181;51.560;13.000;2024-02-04T12:45:29;1.65;;;1.10;;
54269;SDS011;40181;51.560;13.000;2024-02-04T12:47:58;2.50;;;1.35;;
54269;SDS011;40181;51.560;13.000;2024-02-04T12:50:27;3.65;;;1.75;;
54269;SDS011;40181;51.560;13.000;2024-02-04T12:55:32;2.70;;;1.02;;
54269;SDS011;40181;51.560;13.000;2024-02-04T12:58:04;2.38;;;1.23;;
54269;SDS011;40181;51.560;13.000;2024-02-04T13:00:37;7.10;;;1.20;;
54269;SDS011;40181;51.560;13.000;2024-02-04T13:03:07;2.58;;;0.90;;
54269;SDS011;40181;51.560;13.000;2024-02-04T13:05:37;1.58;;;1.10;;
54269;SDS011;40181;51.560;13.000;2024-02-04T13:08:06;2.60;;;0.90;;
54269;SDS011;40181;51.560;13.000;2024-02-04T13:10:38;1.27;;;1.00;;
54269;SDS011;40181;51.560;13.000;2024-02-04T13:13:08;2.58;;;0.90;;
54269;SDS011;40181;51.560;13.000;2024-02-04T13:15:42;3.30;;;1.33;;
54269;SDS011;40181;51.560;13.000;2024-02-04T13:18:12;1.02;;;0.65;;
54269;SDS011;40181;51.560;13.000;2024-02-04T13:20:42;1.60;;;0.90;;
54269;SDS011;40181;51.560;13.000;2024-02-04T13:23:11;3.53;;;0.95;;
54269;SDS011;40181;51.560;13.000;2024-02-04T13:25:40;3.17;;;1.20;;
54269;SDS011;40181;51.560;13.000;2024-02-04T13:28:10;3.25;;;1.13;;
54269;SDS011;40181;51.560;13.000;2024-02-04T13:30:43;1.27;;;0.98;;
54269;SDS011;40181;51.560;13.000;2024-02-04T13:33:12;1.65;;;0.90;;
54269;SDS011;40181;51.560;13.000;2024-02-04T13:35:41;1.13;;;0.75;;
54269;SDS011;40181;51.560;13.000;2024-02-04T13:38:11;5.37;;;1.37;;
54269;SDS011;40181;51.560;13.000;2024-02-04T13:40:40;1.77;;;1.08;;
54269;SDS011;40181;51.560;13.000;2024-02-04T13:43:09;1.25;;;1.02;;
54269;SDS011;40181;51.560;13.000;2024-02-04T13:45:38;4.18;;;0.80;;
54269;SDS011;40181;51.560;13.000;2024-02-04T13:48:10;1.85;;;1.05;;
54269;SDS011;40181;51.560;13.000;2024-02-04T13:50:39;9.48;;;1.63;;
54269;SDS011;40181;51.560;13.000;2024-02-04T13:53:10;2.33;;;1.33;;
54269;SDS011;40181;51.560;13.000;2024-02-04T13:55:39;1.60;;;1.10;;
54269;SDS011;40181;51.560;13.000;2024-02-04T13:58:08;1.45;;;0.90;;
54269;SDS011;40181;51.560;13.000;2024-02-04T14:00:37;1.90;;;0.98;;
54269;SDS011;40181;51.560;13.000;2024-02-04T14:03:09;1.85;;;1.00;;
54269;SDS011;40181;51.560;13.000;2024-02-04T14:05:39;2.05;;;1.08;;
54269;SDS011;40181;51.560;13.000;2024-02-04T14:08:08;5.28;;;1.38;;
54269;SDS011;40181;51.560;13.000;2024-02-04T14:10:37;2.30;;;0.93;;
54269;SDS011;40181;51.560;13.000;2024-02-04T14:13:06;1.90;;;0.90;;
54269;SDS011;40181;51.560;13.000;2024-02-04T14:15:36;1.10;;;0.82;;
54269;SDS011;40181;51.560;13.000;2024-02-04T14:18:05;2.60;;;1.35;;
54269;SDS011;40181;51.560;13.000;2024-02-04T14:20:37;4.95;;;1.33;;
54269;SDS011;40181;51.560;13.000;2024-02-04T14:23:06;4.60;;;1.85;;
54269;SDS011;40181;51.560;13.000;2024-02-04T14:25:36;2.10;;;1.15;;
54269;SDS011;40181;51.560;13.000;2024-02-04T14:28:05;2.03;;;1.13;;
54269;SDS011;40181;51.560;13.000;2024-02-04T14:30:34;0.70;;;0.60;;
54269;SDS011;40181;51.560;13.000;2024-02-04T14:33:03;1.40;;;1.08;;
54269;SDS011;40181;51.560;13.000;2024-02-04T14:35:35;0.82;;;0.77;;
54269;SDS011;40181;51.560;13.000;2024-02-04T14:38:04;1.42;;;0.98;;
54269;SDS011;40181;51.560;13.000;2024-02-04T14:40:33;2.03;;;1.30;;
54269;SDS011;40181;51.560;13.000;2024-02-04T14:43:03;0.90;;;0.77;;
54269;SDS011;40181;51.560;13.000;2024-02-04T14:45:32;2.10;;;1.02;;
54269;SDS011;40181;51.560;13.000;2024-02-04T14:48:01;2.33;;;1.35;;
54269;SDS011;40181;51.560;13.000;2024-02-04T14:50:30;3.15;;;1.67;;
54269;SDS011;40181;51.560;13.000;2024-02-04T14:53:02;1.95;;;1.25;;
54269;SDS011;40181;51.560;13.000;2024-02-04T14:55:31;2.70;;;1.17;;
54269;SDS011;40181;51.560;13.000;2024-02-04T14:58:01;0.73;;;0.70;;
54269;SDS011;40181;51.560;13.000;2024-02-04T15:00:30;2.15;;;1.38;;
54269;SDS011;40181;51.560;13.000;2024-02-04T15:02:59;2.35;;;0.80;;